Time;durP1;ratioP1;P1;durP2;ratioP2;P2;SDS_P1;SDS_P2;PMS_P1;PMS_P2;Temp;Humidity;BMP_temperature;BMP_pressure;BME280_temperature;BME280_humidity;BME280_pressure;Samples;Min_cycle;Max_cycle;Signal;HPM_P1;HPM_P2
2021/08/04 00:01:09;;;;;;;7.80;5.00;;;;;;;-140.79;100.00;63287.88;4967643;28;20031;-74
2021/08/04 00:03:34;;;;;;;9.85;4.70;;;;;;;-140.79;100.00;63287.88;4966852;28;20046;-74
2021/08/04 00:06:00;;;;;;;7.10;4.50;;;;;;;-140.79;100.00;63287.88;4966308;28;20030;-74
2021/08/04 00:08:25;;;;;;;12.32;5.43;;;;;;;-140.79;100.00;63287.88;4969122;28;20031;-74
2021/08/04 00:10:51;;;;;;;10.38;4.75;;;;;;;-140.79;100.00;63287.88;4981164;28;20109;-74
2021/08/04 00:13:16;;;;;;;10.15;5.00;;;;;;;-140.79;100.00;63287.88;4982436;28;20480;-74
2021/08/04 00:15:42;;;;;;;9.20;4.93;;;;;;;-140.79;100.00;63287.88;4986142;28;20728;-74
2021/08/04 00:18:07;;;;;;;11.05;5.05;;;;;;;-140.79;100.00;63287.88;4984931;28;20034;-74
2021/08/04 00:20:33;;;;;;;8.50;4.20;;;;;;;-140.79;100.00;63287.88;4985399;28;20034;-74
2021/08/04 00:22:58;;;;;;;8.25;5.13;;;;;;;-140.79;100.00;63287.88;4978771;28;20030;-73
2021/08/04 00:25:23;;;;;;;10.13;5.18;;;;;;;-140.79;100.00;63287.88;4967137;28;20395;-74
2021/08/04 00:27:49;;;;;;;7.45;4.57;;;;;;;-140.79;100.00;63287.88;4966029;28;20030;-73
2021/08/04 00:30:14;;;;;;;9.43;5.15;;;;;;;-140.79;100.00;63287.88;4966702;28;20023;-74
2021/08/04 00:32:40;;;;;;;8.60;5.22;;;;;;;-140.79;100.00;63287.88;4965440;28;20031;-74
2021/08/04 00:35:05;;;;;;;7.60;4.72;;;;;;;-140.79;100.00;63287.88;4976191;28;20034;-73
2021/08/04 00:37:31;;;;;;;9.48;4.50;;;;;;;-140.79;100.00;63287.88;4985751;28;20452;-73
2021/08/04 00:39:56;;;;;;;9.07;4.50;;;;;;;-140.79;100.00;63287.88;4986118;28;20510;-73
2021/08/04 00:42:22;;;;;;;9.13;4.82;;;;;;;-140.79;100.00;63287.88;4951237;28;20027;-73
2021/08/04 00:44:47;;;;;;;9.35;5.00;;;;;;;-140.79;100.00;63287.88;4966934;28;20045;-73
2021/08/04 00:47:13;;;;;;;7.97;4.72;;;;;;;-140.79;100.00;63287.88;4968064;28;20033;-73
2021/08/04 00:49:39;;;;;;;9.52;5.05;;;;;;;-140.79;100.00;63287.88;4952149;28;20039;-73
2021/08/04 00:52:05;;;;;;;9.48;5.00;;;;;;;-140.79;100.00;63287.88;4966039;28;20042;-73
2021/08/04 00:54:30;;;;;;;10.20;5.03;;;;;;;-140.79;100.00;63287.88;4966437;28;20121;-73
2021/08/04 00:56:55;;;;;;;9.30;5.57;;;;;;;-140.79;100.00;63287.88;4954867;28;20030;-73
2021/08/04 00:59:21;;;;;;;9.93;5.78;;;;;;;-140.79;100.00;63287.88;4949525;28;20041;-72
2021/08/04 01:01:48;;;;;;;10.48;5.03;;;;;;;-140.79;100.00;63287.88;4965812;28;20157;-73
2021/08/04 01:04:54;;;;;;;8.95;5.10;;;;;;;-140.79;100.00;63287.88;4949319;28;20043;-73
2021/08/04 01:07:22;;;;;;;8.48;4.68;;;;;;;-140.79;100.00;63287.88;4950498;28;20034;-74
2021/08/04 01:09:49;;;;;;;9.82;5.13;;;;;;;-140.79;100.00;63287.88;4966612;28;20035;-73
2021/08/04 01:12:21;;;;;;;8.88;4.80;;;;;;;-140.79;100.00;63287.88;4966021;28;20022;-73
2021/08/04 01:14:48;;;;;;;8.23;4.53;;;;;;;-140.79;100.00;63287.88;4949024;28;20026;-73
2021/08/04 01:17:13;;;;;;;9.27;4.63;;;;;;;-140.79;100.00;63287.88;4949615;28;20290;-73
2021/08/04 01:20:12;;;;;;;6.95;4.75;;;;;;;-140.79;100.00;63287.88;4964465;28;20038;-73
2021/08/04 01:22:56;;;;;;;8.53;4.80;;;;;;;-140.79;100.00;63287.88;4942701;28;20046;-73
2021/08/04 01:25:23;;;;;;;7.63;4.70;;;;;;;-140.79;100.00;63287.88;4966579;28;20282;-73
2021/08/04 01:28:19;;;;;;;9.52;5.05;;;;;;;-140.79;100.00;63287.88;4952673;28;20421;-73
2021/08/04 01:30:45;;;;;;;9.32;5.07;;;;;;;-140.79;100.00;63287.88;4985359;28;20137;-73
2021/08/04 01:33:12;;;;;;;10.07;4.70;;;;;;;-140.79;100.00;63287.88;4951802;28;20066;-73
2021/08/04 01:35:38;;;;;;;9.35;4.75;;;;;;;-140.79;100.00;63287.88;4976574;28;20061;-73
2021/08/04 01:38:03;;;;;;;10.23;5.40;;;;;;;-140.79;100.00;63287.88;4983517;28;20039;-72
2021/08/04 01:40:28;;;;;;;9.13;5.28;;;;;;;-140.79;100.00;63287.88;4967796;28;20493;-73
2021/08/04 01:42:54;;;;;;;9.10;5.20;;;;;;;-140.79;100.00;63287.88;4987610;28;20458;-73
2021/08/04 01:45:20;;;;;;;8.38;4.90;;;;;;;-140.79;100.00;63287.88;4975180;28;20030;-73
2021/08/04 01:47:45;;;;;;;8.30;4.82;;;;;;;-140.79;100.00;63287.88;4952759;28;20726;-74
2021/08/04 01:50:12;;;;;;;9.95;5.22;;;;;;;-140.79;100.00;63287.88;4973712;28;20030;-74
2021/08/04 01:52:38;;;;;;;8.85;5.32;;;;;;;-140.79;100.00;63287.88;4989256;28;20057;-74
2021/08/04 01:55:04;;;;;;;6.80;4.82;;;;;;;-140.79;100.00;63287.88;4987078;28;20037;-74
2021/08/04 01:57:29;;;;;;;7.88;4.65;;;;;;;-140.79;100.00;63287.88;4987430;28;20042;-73
2021/08/04 01:59:55;;;;;;;10.48;5.07;;;;;;;-140.79;100.00;63287.88;4971465;28;20023;-74
2021/08/04 02:02:21;;;;;;;7.25;4.75;;;;;;;-140.79;100.00;63287.88;4988484;28;20088;-74
2021/08/04 02:04:47;;;;;;;9.98;5.68;;;;;;;-140.79;100.00;63287.88;4988898;28;20062;-74
2021/08/04 02:07:26;;;;;;;7.85;4.70;;;;;;;-140.79;100.00;63287.88;4971778;28;20024;-74
2021/08/04 02:09:52;;;;;;;10.57;5.35;;;;;;;-140.79;100.00;63287.88;4979675;28;20023;-74
2021/08/04 02:12:18;;;;;;;9.63;5.50;;;;;;;-140.79;100.00;63287.88;4969666;28;20125;-74
2021/08/04 02:15:02;;;;;;;10.43;5.30;;;;;;;-140.79;100.00;63287.88;4969000;28;20109;-73
2021/08/04 02:17:35;;;;;;;8.73;4.97;;;;;;;-140.79;100.00;63287.88;4952910;28;20042;-74
2021/08/04 02:20:28;;;;;;;11.20;5.32;;;;;;;-140.79;100.00;63287.88;4968814;28;20023;-74
2021/08/04 02:22:58;;;;;;;9.93;4.90;;;;;;;-140.79;100.00;63287.88;4964625;28;20114;-74
2021/08/04 02:25:38;;;;;;;;;;;;;;;-140.79;100.00;63287.88;4988229;28;20465;-73
2021/08/04 02:28:05;;;;;;;9.18;5.30;;;;;;;-140.79;100.00;63287.88;4988907;28;19910;-74
2021/08/04 02:30:30;;;;;;;9.52;5.28;;;;;;;-140.79;100.00;63287.88;4975810;28;20030;-73
2021/08/04 02:32:56;;;;;;;10.05;5.65;;;;;;;-140.79;100.00;63287.88;4951202;28;20544;-74
2021/08/04 02:35:22;;;;;;;9.88;5.43;;;;;;;-140.79;100.00;63287.88;4966793;28;20026;-74
2021/08/04 02:37:47;;;;;;;8.57;5.43;;;;;;;-140.79;100.00;63287.88;4985358;28;20457;-74
2021/08/04 02:40:13;;;;;;;9.65;5.25;;;;;;;-140.79;100.00;63287.88;4954326;28;20026;-74
2021/08/04 02:42:39;;;;;;;8.98;5.50;;;;;;;-140.79;100.00;63287.88;4987843;28;20442;-74
2021/08/04 02:45:05;;;;;;;9.82;5.72;;;;;;;-140.79;100.00;63287.88;4987054;28;20033;-74
2021/08/04 02:47:31;;;;;;;10.10;5.38;;;;;;;-140.79;100.00;63287.88;4988418;28;20617;-73
2021/08/04 02:49:57;;;;;;;10.65;5.78;;;;;;;-140.79;100.00;63287.88;4984657;28;20168;-73
2021/08/04 02:52:22;;;;;;;7.43;4.55;;;;;;;-140.79;100.00;63287.88;4971215;28;20120;-73
2021/08/04 02:54:48;;;;;;;10.88;5.07;;;;;;;-140.79;100.00;63287.88;4986845;28;20394;-73
2021/08/04 02:57:14;;;;;;;9.13;4.88;;;;;;;-140.79;100.00;63287.88;4970573;28;20030;-74
2021/08/04 02:59:39;;;;;;;9.77;5.05;;;;;;;-140.79;100.00;63287.88;4989257;28;20092;-74
2021/08/04 03:02:05;;;;;;;11.95;5.47;;;;;;;-140.79;100.00;63287.88;4989191;28;20062;-74
2021/08/04 03:04:30;;;;;;;10.93;5.45;;;;;;;-140.79;100.00;63287.88;4993733;28;20050;-74
2021/08/04 03:06:56;;;;;;;9.43;5.53;;;;;;;-140.79;100.00;63287.88;4992198;28;20026;-75
2021/08/04 03:09:21;;;;;;;8.88;5.15;;;;;;;-140.79;100.00;63287.88;4991437;28;20035;-74
2021/08/04 03:11:47;;;;;;;11.48;5.32;;;;;;;-140.79;100.00;63287.88;4985944;28;20041;-74
2021/08/04 03:14:12;;;;;;;9.02;5.63;;;;;;;-140.79;100.00;63287.88;4972989;28;20038;-74
2021/08/04 03:16:37;;;;;;;10.68;5.90;;;;;;;-140.79;100.00;63287.88;4978895;28;20473;-74
2021/08/04 03:19:03;;;;;;;9.63;4.70;;;;;;;-140.79;100.00;63287.88;4986363;28;20489;-74
2021/08/04 03:21:28;;;;;;;9.52;5.45;;;;;;;-140.79;100.00;63287.88;4973835;28;20026;-75
2021/08/04 03:23:54;;;;;;;11.15;5.07;;;;;;;-140.79;100.00;63287.88;4986965;28;20042;-75
2021/08/04 03:26:19;;;;;;;8.15;5.50;;;;;;;-140.79;100.00;63287.88;4986780;28;20045;-74
2021/08/04 03:28:45;;;;;;;10.05;5.68;;;;;;;-140.79;100.00;63287.88;4986692;28;20026;-75
2021/08/04 03:31:10;;;;;;;8.27;5.43;;;;;;;-140.79;100.00;63287.88;4987663;28;20096;-75
2021/08/04 03:33:35;;;;;;;10.13;5.85;;;;;;;-140.79;100.00;63287.88;4985721;28;20494;-75
2021/08/04 03:36:01;;;;;;;9.27;4.72;;;;;;;-140.79;100.00;63287.88;4970403;28;20030;-75
2021/08/04 03:38:26;;;;;;;10.27;5.50;;;;;;;-140.79;100.00;63287.88;4986708;28;20022;-74
2021/08/04 03:40:52;;;;;;;11.30;6.00;;;;;;;-140.79;100.00;63287.88;4977667;28;20050;-75
2021/08/04 03:43:17;;;;;;;9.27;5.85;;;;;;;-140.79;100.00;63287.88;4964972;28;20026;-75
2021/08/04 03:45:43;;;;;;;8.93;5.30;;;;;;;-140.79;100.00;63287.88;4987280;28;20030;-75
2021/08/04 03:48:08;;;;;;;14.48;5.72;;;;;;;-140.79;100.00;63287.88;4985826;28;20030;-75
2021/08/04 03:50:34;;;;;;;10.05;5.15;;;;;;;-140.79;100.00;63287.88;4985322;28;20060;-75
2021/08/04 03:52:59;;;;;;;9.55;5.35;;;;;;;-140.79;100.00;63287.88;4986829;28;20097;-75
2021/08/04 03:55:25;;;;;;;9.15;5.40;;;;;;;-140.79;100.00;63287.88;4986167;28;20030;-75
2021/08/04 03:57:50;;;;;;;10.15;5.32;;;;;;;-140.79;100.00;63287.88;4969293;28;20042;-74
2021/08/04 04:00:16;;;;;;;11.27;5.20;;;;;;;-140.79;100.00;63287.88;4967732;28;20095;-74
2021/08/04 04:02:41;;;;;;;8.68;5.38;;;;;;;-140.79;100.00;63287.88;4969897;28;20112;-75
2021/08/04 04:05:07;;;;;;;10.15;5.60;;;;;;;-140.79;100.00;63287.88;4979980;28;20492;-75
2021/08/04 04:07:34;;;;;;;11.35;5.40;;;;;;;-140.79;100.00;63287.88;4970542;28;20035;-74
2021/08/04 04:09:59;;;;;;;11.93;5.38;;;;;;;-140.79;100.00;63287.88;4965657;28;20560;-74
2021/08/04 04:12:25;;;;;;;11.23;5.75;;;;;;;-140.79;100.00;63287.88;4966639;28;20027;-74
2021/08/04 04:14:50;;;;;;;10.43;5.43;;;;;;;-140.79;100.00;63287.88;4967739;28;20741;-75
2021/08/04 04:17:16;;;;;;;10.10;5.47;;;;;;;-140.79;100.00;63287.88;4967409;28;20035;-76
2021/08/04 04:19:41;;;;;;;12.47;6.10;;;;;;;25.39;nan;95024.09;4977291;28;20427;-71
2021/08/04 04:22:06;;;;;;;12.38;6.65;;;;;;;25.31;nan;95023.25;4986181;28;20026;-74
2021/08/04 04:24:32;;;;;;;10.23;5.60;;;;;;;25.15;nan;95040.66;4968834;28;20096;-73
2021/08/04 04:26:57;;;;;;;9.55;6.20;;;;;;;25.06;nan;95032.84;4985362;28;20027;-72
2021/08/04 04:29:23;;;;;;;10.73;5.70;;;;;;;25.06;nan;95023.91;4986295;28;20081;-72
2021/08/04 04:31:48;;;;;;;10.45;6.28;;;;;;;25.06;nan;95041.03;4970882;28;20106;-72
2021/08/04 04:34:14;;;;;;;15.38;6.70;;;;;;;25.08;nan;95038.53;4909431;28;20363;-72
2021/08/04 04:36:39;;;;;;;11.95;6.38;;;;;;;25.11;nan;95037.50;4970932;28;20409;-73
2021/08/04 04:39:04;;;;;;;13.48;6.13;;;;;;;25.22;nan;95040.03;4978873;28;20093;-73
2021/08/04 04:41:30;;;;;;;13.20;7.55;;;;;;;25.25;nan;95044.47;4951020;28;20486;-72
2021/08/04 04:43:55;;;;;;;13.60;6.53;;;;;;;25.27;nan;95047.41;4950482;28;20026;-72
2021/08/04 04:46:21;;;;;;;10.85;5.80;;;;;;;25.32;nan;95046.59;4907242;28;20049;-73
2021/08/04 04:48:46;;;;;;;12.30;6.47;;;;;;;25.38;nan;95045.25;4982236;28;20460;-71
2021/08/04 04:51:12;;;;;;;11.77;6.63;;;;;;;25.49;nan;95044.34;4985610;28;20413;-72
2021/08/04 04:53:37;;;;;;;12.65;6.50;;;;;;;25.57;nan;95056.13;4980917;28;20030;-72
2021/08/04 04:56:02;;;;;;;9.95;6.10;;;;;;;25.65;nan;95057.00;4985706;28;20030;-74
2021/08/04 04:58:28;;;;;;;10.70;5.90;;;;;;;25.81;nan;95051.25;4985915;28;20022;-74
2021/08/04 05:00:53;;;;;;;13.00;5.60;;;;;;;25.92;nan;95062.75;4959201;28;20027;-72
2021/08/04 05:03:20;;;;;;;13.50;5.57;;;;;;;26.07;nan;95065.72;4958249;28;20493;-72
2021/08/04 05:05:46;;;;;;;12.70;5.10;;;;;;;26.27;nan;95067.81;4972711;28;20027;-72
2021/08/04 05:08:11;;;;;;;10.20;6.13;;;;;;;26.40;nan;95065.13;4985623;28;20534;-72
2021/08/04 05:10:36;;;;;;;10.73;5.80;;;;;;;26.58;nan;95067.00;4985205;28;20030;-72
2021/08/04 05:13:02;;;;;;;11.15;5.28;;;;;;;26.76;nan;95068.88;4985557;28;20038;-71
2021/08/04 05:15:28;;;;;;;9.90;5.20;;;;;;;26.95;nan;95065.47;4988674;28;20030;-72
2021/08/04 05:17:54;;;;;;;10.23;5.25;;;;;;;27.11;nan;95078.06;4988731;28;20037;-72
2021/08/04 05:20:21;;;;;;;11.38;5.72;;;;;;;27.28;nan;95075.69;4989262;28;20038;-71
2021/08/04 05:22:46;;;;;;;12.55;5.50;;;;;;;27.44;nan;95080.03;4989687;28;20034;-70
2021/08/04 05:25:12;;;;;;;10.38;5.55;;;;;;;27.52;nan;95078.13;4988546;28;20613;-70
2021/08/04 05:27:37;;;;;;;10.02;5.25;;;;;;;27.68;nan;95085.22;4989200;28;20536;-71
2021/08/04 05:30:03;;;;;;;11.23;5.55;;;;;;;27.83;nan;95092.31;4977395;28;20583;-70
2021/08/04 05:32:29;;;;;;;14.32;6.15;;;;;;;27.95;nan;95088.03;4978742;28;20029;-70
2021/08/04 05:34:54;;;;;;;9.45;5.30;;;;;;;28.07;nan;95105.69;4974294;28;20031;-71
2021/08/04 05:37:19;;;;;;;10.15;5.03;;;;;;;28.13;nan;95092.59;4973605;28;20026;-72
2021/08/04 05:39:45;;;;;;;11.32;5.63;;;;;;;28.26;nan;95095.22;4972141;28;20081;-72
2021/08/04 05:42:11;;;;;;;11.45;6.03;;;;;;;28.37;nan;95089.44;4977653;28;20092;-71
2021/08/04 05:44:37;;;;;;;11.32;5.43;;;;;;;28.46;nan;95097.16;4973654;28;20018;-71
2021/08/04 05:47:03;;;;;;;13.30;6.22;;;;;;;28.50;nan;95097.56;4969850;28;20053;-71
2021/08/04 05:49:28;;;;;;;12.73;5.57;;;;;;;28.58;nan;95098.34;4971697;28;20019;-72
2021/08/04 05:51:53;;;;;;;11.93;5.47;;;;;;;28.71;nan;95095.53;4973505;28;20029;-72
2021/08/04 05:54:19;;;;;;;12.45;5.65;;;;;;;28.78;nan;95101.78;4978384;28;20666;-72
2021/08/04 05:56:45;;;;;;;11.10;6.10;;;;;;;28.89;nan;95104.22;4972488;28;20177;-72
2021/08/04 05:59:11;;;;;;;11.98;5.63;;;;;;;28.78;nan;95107.28;4988931;28;20623;-76
2021/08/04 06:01:36;;;;;;;12.73;6.10;;;;;;;28.62;nan;95088.47;4967895;28;20030;-76
2021/08/04 06:04:02;;;;;;;11.80;5.72;;;;;;;28.71;nan;95112.00;4969701;28;20080;-73
2021/08/04 06:06:28;;;;;;;13.50;5.53;;;;;;;28.66;nan;95105.38;4978562;28;20405;-74
2021/08/04 06:08:55;;;;;;;11.98;5.63;;;;;;;28.68;nan;95118.59;4977722;28;20036;-72
2021/08/04 06:11:20;;;;;;;11.18;5.50;;;;;;;28.72;nan;95105.25;4971122;28;20022;-74
2021/08/04 06:13:45;;;;;;;9.23;5.32;;;;;;;28.67;nan;95095.13;4982562;28;20571;-71
2021/08/04 06:16:11;;;;;;;11.82;5.68;;;;;;;28.78;nan;95107.28;4983286;28;20027;-70
2021/08/04 06:18:36;;;;;;;11.35;5.00;;;;;;;28.80;nan;95110.25;4982638;28;20505;-70
2021/08/04 06:21:02;;;;;;;9.57;5.30;;;;;;;28.80;nan;95110.25;4970128;28;20026;-70
2021/08/04 06:23:27;;;;;;;12.32;4.82;;;;;;;28.80;nan;95104.75;4977197;28;20030;-71
2021/08/04 06:25:53;;;;;;;9.30;4.80;;;;;;;28.81;nan;95111.69;4971793;28;20022;-70
2021/08/04 06:28:18;;;;;;;10.07;5.18;;;;;;;28.80;nan;95099.25;4977412;28;20066;-72
2021/08/04 06:30:43;;;;;;;10.23;5.18;;;;;;;28.81;nan;95106.19;4970864;28;20011;-71
2021/08/04 06:33:09;;;;;;;8.95;5.13;;;;;;;28.80;nan;95115.75;4971030;28;20414;-70
2021/08/04 06:35:35;;;;;;;9.25;5.00;;;;;;;28.76;nan;95109.84;4970561;28;20058;-71
2021/08/04 06:38:01;;;;;;;7.82;4.93;;;;;;;28.75;nan;95107.63;4968806;28;20031;-71
2021/08/04 06:40:27;;;;;;;7.80;4.90;;;;;;;28.69;nan;95106.31;4968323;28;20398;-71
2021/08/04 06:42:59;;;;;;;7.63;5.13;;;;;;;28.68;nan;95107.59;4973328;28;20034;-71
2021/08/04 06:45:24;;;;;;;7.78;4.88;;;;;;;28.66;nan;95102.63;4964475;28;20545;-71
2021/08/04 06:47:49;;;;;;;8.85;5.20;;;;;;;28.66;nan;95115.63;4980166;28;20030;-71
2021/08/04 06:50:15;;;;;;;9.00;5.10;;;;;;;28.65;nan;95108.66;4975261;28;20034;-71
2021/08/04 06:52:40;;;;;;;7.88;4.90;;;;;;;28.60;nan;95106.81;4968515;28;20038;-70
2021/08/04 06:55:06;;;;;;;9.60;4.70;;;;;;;28.62;nan;95104.97;4966840;28;20046;-71
2021/08/04 06:57:31;;;;;;;7.75;4.97;;;;;;;28.61;nan;95113.75;4967509;28;20026;-71
2021/08/04 06:59:57;;;;;;;9.15;4.85;;;;;;;28.60;nan;95106.81;4972534;28;20752;-71
2021/08/04 07:02:22;;;;;;;8.27;5.28;;;;;;;28.57;nan;95102.38;4969578;28;20034;-70
2021/08/04 07:04:48;;;;;;;8.32;5.50;;;;;;;28.58;nan;95103.84;4969706;28;20053;-71
2021/08/04 07:07:15;;;;;;;8.60;4.60;;;;;;;28.55;nan;95110.41;4975260;28;20337;-71
2021/08/04 07:09:40;;;;;;;9.65;4.75;;;;;;;28.55;nan;95104.91;4985564;28;20018;-71
2021/08/04 07:12:06;;;;;;;8.55;4.43;;;;;;;28.57;nan;95102.38;4973191;28;20109;-71
2021/08/04 07:14:31;;;;;;;6.88;4.53;;;;;;;28.54;nan;95106.22;4987494;28;20026;-71
2021/08/04 07:16:57;;;;;;;8.90;5.00;;;;;;;28.57;nan;95113.38;4982478;28;20726;-71
2021/08/04 07:19:22;;;;;;;7.10;4.70;;;;;;;28.56;nan;95106.41;4986794;28;20781;-71
2021/08/04 07:21:48;;;;;;;7.53;5.15;;;;;;;28.57;nan;95107.88;4983994;28;20026;-71
2021/08/04 07:24:14;;;;;;;8.90;4.45;;;;;;;28.56;nan;95103.66;4986551;28;20528;-72
2021/08/04 07:26:40;;;;;;;8.40;4.45;;;;;;;28.55;nan;95099.44;4978179;28;20504;-71
2021/08/04 07:29:06;;;;;;;8.43;4.68;;;;;;;28.49;nan;95098.84;4978442;28;20030;-72
2021/08/04 07:31:31;;;;;;;9.18;5.00;;;;;;;28.33;nan;95106.25;4986203;28;20575;-71
2021/08/04 07:33:57;;;;;;;7.85;4.32;;;;;;;28.03;nan;95088.81;4986508;28;20461;-71
2021/08/04 07:36:22;;;;;;;6.65;4.47;;;;;;;27.84;nan;95093.78;4987355;28;20034;-71
2021/08/04 07:38:48;;;;;;;10.45;4.35;;;;;;;27.70;nan;95104.63;4987082;28;20041;-71
2021/08/04 07:41:13;;;;;;;6.38;4.53;;;;;;;27.52;nan;95094.59;4955501;28;20092;-72
2021/08/04 07:43:39;;;;;;;5.55;4.22;;;;;;;27.32;nan;95098.03;4967838;28;20026;-72
2021/08/04 07:46:04;;;;;;;6.97;4.43;;;;;;;27.24;nan;95107.44;4972898;28;20041;-70
2021/08/04 07:48:30;;;;;;;7.90;4.70;;;;;;;-140.79;100.00;63287.88;4987085;28;20030;-73
2021/08/04 07:50:56;;;;;;;6.57;4.22;;;;;;;-140.79;100.00;63287.88;4982584;28;20545;-70
2021/08/04 07:53:22;;;;;;;8.00;4.40;;;;;;;-140.79;100.00;63287.88;4972192;28;20046;-72
2021/08/04 07:55:47;;;;;;;7.03;4.00;;;;;;;-140.79;100.00;63287.88;4965203;28;20129;-72
2021/08/04 07:58:13;;;;;;;7.65;4.60;;;;;;;27.11;nan;95085.53;4967358;28;20026;-71
2021/08/04 08:00:38;;;;;;;9.23;4.72;;;;;;;27.13;nan;95086.50;4966665;28;20034;-70
2021/08/04 08:03:04;;;;;;;6.07;4.32;;;;;;;27.14;nan;95082.47;4984186;28;20061;-73
2021/08/04 08:05:29;;;;;;;7.75;4.47;;;;;;;27.12;nan;95079.53;4985619;28;20034;-73
2021/08/04 08:07:55;;;;;;;7.60;4.60;;;;;;;27.11;nan;95083.53;4976924;28;20037;-70
2021/08/04 08:10:25;;;;;;;7.00;4.55;;;;;;;27.08;nan;95095.56;4983846;28;20026;-70
2021/08/04 08:12:50;;;;;;;7.80;4.30;;;;;;;27.08;nan;95090.09;4986691;28;20054;-71
2021/08/04 08:15:16;;;;;;;7.22;4.63;;;;;;;27.06;nan;95084.41;4985680;28;20037;-71
2021/08/04 08:17:41;;;;;;;5.95;4.22;;;;;;;27.04;nan;95095.16;4985132;28;20026;-70
2021/08/04 08:20:07;;;;;;;8.52;4.60;;;;;;;27.02;nan;95086.00;4984519;28;20033;-74
2021/08/04 08:22:32;;;;;;;6.75;4.10;;;;;;;26.97;nan;95073.88;4984284;28;20050;-71
2021/08/04 08:24:58;;;;;;;9.32;4.72;;;;;;;26.93;nan;95073.47;4984281;28;20026;-71
2021/08/04 08:27:23;;;;;;;7.13;4.65;;;;;;;26.87;nan;95078.28;4982490;28;20653;-70
2021/08/04 08:29:49;;;;;;;6.07;4.00;;;;;;;26.85;nan;95071.88;4966611;28;20037;-71
2021/08/04 08:32:14;;;;;;;6.30;4.15;;;;;;;26.81;nan;95066.72;4957586;28;20461;-70
2021/08/04 08:34:40;;;;;;;6.95;4.28;;;;;;;26.79;nan;95068.53;4985392;28;20425;-70
2021/08/04 08:37:05;;;;;;;6.45;4.35;;;;;;;26.76;nan;95073.06;4985099;28;20760;-70
2021/08/04 08:39:32;;;;;;;6.03;3.90;;;;;;;26.73;nan;95064.44;4985680;28;20508;-70
2021/08/04 08:41:59;;;;;;;7.57;4.03;;;;;;;26.71;nan;95056.00;4984005;28;20026;-71
2021/08/04 08:44:24;;;;;;;6.10;4.00;;;;;;;26.65;nan;95033.47;4985180;28;20421;-70
2021/08/04 08:46:50;;;;;;;6.40;4.45;;;;;;;26.67;nan;95044.63;4964890;28;20040;-71
2021/08/04 08:49:16;;;;;;;6.10;3.92;;;;;;;26.65;nan;95041.69;4965498;28;20521;-71
2021/08/04 08:51:41;;;;;;;6.47;4.25;;;;;;;26.62;nan;95037.25;4973054;28;20555;-71
2021/08/04 08:54:07;;;;;;;5.70;4.00;;;;;;;26.57;nan;95032.63;4983132;28;20014;-71
2021/08/04 08:56:32;;;;;;;5.90;4.10;;;;;;;26.57;nan;95029.91;4966761;28;20022;-71
2021/08/04 08:58:58;;;;;;;5.22;3.80;;;;;;;26.56;nan;95028.41;4982346;28;20022;-72
2021/08/04 09:01:37;;;;;;;6.75;4.00;;;;;;;26.55;nan;95032.44;4970774;28;20490;-71
2021/08/04 09:04:04;;;;;;;4.50;3.60;;;;;;;26.48;nan;95027.59;4968934;28;20149;-70
2021/08/04 09:06:46;;;;;;;5.43;3.50;;;;;;;26.51;nan;95021.78;4971912;28;20694;-70
2021/08/04 09:09:19;;;;;;;6.90;3.90;;;;;;;26.50;nan;95022.31;4970547;28;20034;-74
2021/08/04 09:11:49;;;;;;;6.38;3.70;;;;;;;26.48;nan;95016.63;4968304;28;20026;-75
2021/08/04 09:14:15;;;;;;;4.95;3.65;;;;;;;26.52;nan;95028.03;4968287;28;20027;-71
2021/08/04 09:16:40;;;;;;;6.07;3.75;;;;;;;26.51;nan;95021.06;4980199;28;20398;-73
2021/08/04 09:19:22;;;;;;;5.30;4.20;;;;;;;26.62;nan;95020.81;4972263;28;20037;-74
2021/08/04 09:22:03;;;;;;;4.70;3.60;;;;;;;26.68;nan;95018.69;4970624;28;20490;-74
2021/08/04 09:24:29;;;;;;;7.25;3.58;;;;;;;26.73;nan;95015.13;4972959;28;20505;-73
2021/08/04 09:26:54;;;;;;;4.78;3.50;;;;;;;26.80;nan;95020.66;4967891;28;20038;-74
2021/08/04 09:29:20;;;;;;;6.25;3.55;;;;;;;26.89;nan;95029.22;4984812;28;20489;-71
2021/08/04 09:31:52;;;;;;;4.50;3.40;;;;;;;26.96;nan;95014.84;4980023;28;20486;-72
2021/08/04 09:34:39;;;;;;;5.10;3.33;;;;;;;27.06;nan;95010.38;4956367;28;20035;-71
2021/08/04 09:37:12;;;;;;;7.05;3.90;;;;;;;27.14;nan;95015.94;4978499;28;20092;-76
2021/08/04 09:39:39;;;;;;;5.78;3.55;;;;;;;27.22;nan;95012.00;4980977;28;20157;-72
2021/08/04 09:42:04;;;;;;;5.13;3.35;;;;;;;27.31;nan;95003.31;4974693;28;20120;-72
2021/08/04 09:44:30;;;;;;;5.43;3.60;;;;;;;27.38;nan;95008.13;4964795;28;20856;-72
2021/08/04 09:47:09;;;;;;;6.07;3.50;;;;;;;27.49;nan;95007.84;4971489;28;20097;-73
2021/08/04 09:49:34;;;;;;;5.47;3.60;;;;;;;27.54;nan;95001.53;4984314;28;20042;-73
2021/08/04 09:52:06;;;;;;;4.78;3.25;;;;;;;27.61;nan;94998.84;4983049;28;20500;-72
2021/08/04 09:54:39;;;;;;;5.82;3.42;;;;;;;27.67;nan;94995.94;4984157;28;20050;-72
2021/08/04 09:57:04;;;;;;;5.22;3.42;;;;;;;27.68;nan;94976.19;4969530;28;20031;-72
2021/08/04 09:59:29;;;;;;;5.32;3.40;;;;;;;27.77;nan;94990.19;4977792;28;20081;-72
2021/08/04 10:01:57;;;;;;;6.15;3.67;;;;;;;27.83;nan;94988.03;4984123;28;20031;-72
2021/08/04 10:04:22;;;;;;;4.30;3.13;;;;;;;27.89;nan;94985.88;4968779;28;20070;-73
2021/08/04 10:06:48;;;;;;;4.65;3.40;;;;;;;27.91;nan;94988.06;4988757;28;20029;-73
2021/08/04 10:09:17;;;;;;;5.78;3.25;;;;;;;27.97;nan;94992.13;4988292;28;20033;-72
2021/08/04 10:11:45;;;;;;;5.88;3.33;;;;;;;28.00;nan;94991.03;4988397;28;20029;-72
2021/08/04 10:14:13;;;;;;;5.47;3.38;;;;;;;28.02;nan;94982.28;4988843;28;20083;-72
2021/08/04 10:16:39;;;;;;;5.20;3.22;;;;;;;28.07;nan;94984.13;4967330;28;20027;-72
2021/08/04 10:22:29;;;;;;;3.78;2.72;;;;;;;28.05;nan;94970.94;4941690;28;20046;-74
2021/08/04 10:24:54;;;;;;;5.28;3.22;;;;;;;28.16;nan;94975.41;4957563;28;20018;-74
2021/08/04 10:27:19;;;;;;;5.18;3.45;;;;;;;28.17;nan;94972.13;4971149;28;20037;-72
2021/08/04 10:29:46;;;;;;;7.93;3.38;;;;;;;28.25;nan;94978.38;4982414;28;20413;-73
2021/08/04 10:32:12;;;;;;;5.63;3.13;;;;;;;28.23;nan;94961.72;4970757;28;20030;-73
2021/08/04 10:34:37;;;;;;;5.25;2.95;;;;;;;28.29;nan;94968.50;4974698;28;20026;-74
2021/08/04 10:37:03;;;;;;;6.07;3.20;;;;;;;28.35;nan;94969.09;4976319;28;20049;-72
2021/08/04 10:39:28;;;;;;;6.32;3.00;;;;;;;28.38;nan;94965.25;4980607;28;20413;-73
2021/08/04 10:42:07;;;;;;;4.63;3.20;;;;;;;28.42;nan;94970.41;4979074;28;20022;-76
2021/08/04 10:44:33;;;;;;;5.43;2.93;;;;;;;28.45;nan;94963.84;4977060;28;20033;-73
2021/08/04 10:46:59;;;;;;;5.07;2.90;;;;;;;28.47;nan;94961.28;4970006;28;20053;-73
2021/08/04 10:49:29;;;;;;;4.88;3.08;;;;;;;28.49;nan;94958.69;4969754;28;20059;-72
2021/08/04 10:51:55;;;;;;;5.45;2.80;;;;;;;28.49;nan;94953.22;4973010;28;20058;-74
2021/08/04 10:54:21;;;;;;;4.05;3.00;;;;;;;28.42;nan;94953.94;4973708;28;20064;-75
2021/08/04 10:56:48;;;;;;;5.65;3.10;;;;;;;28.31;nan;94943.25;4966551;28;20029;-71
2021/08/04 10:59:13;;;;;;;4.88;2.88;;;;;;;28.18;nan;94945.41;4986755;28;20050;-72
2021/08/04 11:01:54;;;;;;;4.20;2.78;;;;;;;28.03;nan;94946.03;4978418;28;20057;-71
2021/08/04 11:04:26;;;;;;;4.47;3.08;;;;;;;27.79;nan;94946.44;4979010;28;20058;-71
2021/08/04 11:07:06;;;;;;;5.50;2.70;;;;;;;27.63;nan;94935.19;4986306;28;20033;-71
2021/08/04 11:09:32;;;;;;;7.63;3.67;;;;;;;27.44;nan;94935.41;4978919;28;20053;-71
2021/08/04 11:12:00;;;;;;;4.47;2.70;;;;;;;27.29;nan;94934.53;4986122;28;20022;-71
2021/08/04 11:14:49;;;;;;;4.32;2.85;;;;;;;27.11;nan;94935.47;4965398;28;20495;-71
2021/08/04 11:17:24;;;;;;;3.80;2.80;;;;;;;26.95;nan;94922.94;4984016;28;20414;-72
2021/08/04 11:20:03;;;;;;;4.72;2.72;;;;;;;26.86;nan;94926.09;4976651;28;20074;-71
2021/08/04 11:22:34;;;;;;;5.00;3.10;;;;;;;26.81;nan;94929.69;4987259;28;20044;-71
2021/08/04 11:25:00;;;;;;;4.60;2.80;;;;;;;26.76;nan;94934.59;4986677;28;20765;-72
2021/08/04 11:27:33;;;;;;;4.70;3.13;;;;;;;26.79;nan;94931.53;4983771;28;20390;-72
2021/08/04 11:29:58;;;;;;;5.22;3.30;;;;;;;26.85;nan;94924.63;4986979;28;20100;-72
2021/08/04 11:32:25;;;;;;;5.28;2.90;;;;;;;26.94;nan;94929.69;4987373;28;20030;-72
2021/08/04 11:34:50;;;;;;;4.90;2.85;;;;;;;26.97;nan;94919.66;4986837;28;20065;-72